Samus Swan — 9HA2333 — position and weather

sailwx.info

Track history (hours):
 
Tides and Currents Weather Stations Pressure Air Temp Water Temp Dewpoint Dewpoint Depression Visibility Wind Speed Wind Dir Waves Ship Positions

Samus Swan

Last reported at 2016-Nov-23 21:29 UTC. Time now 2016-Dec-02 18:06 UTC.
Position N 29°23' W 094°49'.
Warning: this ship's position is 8 days out of date.

Length 106 m; draft 7 m.

Type: Tanker. MMSI: 248363000.

Date/timePositionNaut miles runAvg speedWind from/ knotsBaromVisibWave heightAir tempDewpointWater temp
2016-Nov-23 21:29N 29°23' W 094°49'1111.9
2016-Nov-23 20:33N 29°33' W 094°54'9 9.0
2016-Nov-23 19:33N 29°41' W 094°59'6 6.4
2016-Nov-23 18:33N 29°45' W 095°04'6 6.2
2016-Nov-23 17:33N 29°45' W 095°11'5 0.1
2016-Nov-22 03:17N 29°45' W 095°17'2 2.3
2016-Nov-22 02:28N 29°44' W 095°15'17 5.9
2016-Nov-21 23:33N 29°37' W 094°57'19 0.4
2016-Nov-20 04:09N 29°21' W 094°46'711.2
2016-Nov-20 03:33N 29°26' W 094°50'2010.2
2016-Nov-20 01:33N 29°44' W 095°02'3 0.1
2016-Nov-18 01:13N 29°45' W 095°06'5 6.8
2016-Nov-18 00:33N 29°43' W 095°01'10 9.5
2016-Nov-17 23:33N 29°35' W 094°56'1211.5
2016-Nov-17 22:33N 29°25' W 094°49'12 0.9
2016-Nov-17 08:32N 29°20' W 094°36'0 0.0
2016-Nov-17 02:14N 29°20' W 094°36'  
Track history (hours):
 
Tides and Currents Weather Stations Pressure Air Temp Water Temp Dewpoint Dewpoint Depression Visibility Wind Speed Wind Dir Waves Ship Positions

Samus Swan

Last reported at 2016-Nov-23 21:29 UTC. Time now 2016-Dec-02 18:06 UTC.
Position N 29°23' W 094°49'.
Warning: this ship's position is 8 days out of date.

Length 106 m; draft 7 m.

Type: Tanker. MMSI: 248363000.

Date/timePositionNaut miles runAvg speedWind from/ knotsBaromVisibWave heightAir tempDewpointWater temp
2016-Nov-23 21:29N 29°23' W 094°49'1111.9
2016-Nov-23 20:33N 29°33' W 094°54'9 9.0
2016-Nov-23 19:33N 29°41' W 094°59'6 6.4
2016-Nov-23 18:33N 29°45' W 095°04'6 6.2
2016-Nov-23 17:33N 29°45' W 095°11'5 0.1
2016-Nov-22 03:17N 29°45' W 095°17'2 2.3
2016-Nov-22 02:28N 29°44' W 095°15'17 5.9
2016-Nov-21 23:33N 29°37' W 094°57'19 0.4
2016-Nov-20 04:09N 29°21' W 094°46'711.2
2016-Nov-20 03:33N 29°26' W 094°50'2010.2
2016-Nov-20 01:33N 29°44' W 095°02'3 0.1
2016-Nov-18 01:13N 29°45' W 095°06'5 6.8
2016-Nov-18 00:33N 29°43' W 095°01'10 9.5
2016-Nov-17 23:33N 29°35' W 094°56'1211.5
2016-Nov-17 22:33N 29°25' W 094°49'12 0.9
2016-Nov-17 08:32N 29°20' W 094°36'0 0.0
2016-Nov-17 02:14N 29°20' W 094°36'  

Dump ship's entire track history